Cromwell, Washington
Current Conditions -  °F | °C
As of 9:53 PM on Friday 24 Oct 2014 (Local Time) from KTIW Reporting Station
Light Rain Light Rain  
Wind Chill: 11°   Ceiling: 6000
Heat Index: 11°   Visibility: 10mi
Dew Point:   Wind: 10mph
Humidity: 92%   Direction: 20°NNE
Pressure: 29.81"   Gusts: NA
Location:  47.2986°N, 122.616°W
Report Text: KTIW 250453Z AUTO 02009KT 10SM -RA BKN060 OVC070 11/09 A2981 RMK AO2 SLP095 P0013 T01060094
Loading
Personal Weather Stations






























Interactive Weather Map
Tropical Storm Tracking
New forecast layout! Learn more

10-Day Weather Forecast

Advertisements
Track Severe Weather on mobile